sensor_id;sensor_type;location;lat;lon;timestamp;pressure;altitude;pressure_sealevel;temperature;humidity
70053;BME280;57398;52.032;4.376;2024-02-23T00:02:30;99069.34;;;5.81;100.00
70053;BME280;57398;52.032;4.376;2024-02-23T00:05:19;99080.13;;;5.78;100.00
70053;BME280;57398;52.032;4.376;2024-02-23T00:08:08;99082.69;;;5.78;100.00
70053;BME280;57398;52.032;4.376;2024-02-23T00:10:56;99088.16;;;5.81;100.00
70053;BME280;57398;52.032;4.376;2024-02-23T00:13:45;99106.31;;;5.75;100.00
70053;BME280;57398;52.032;4.376;2024-02-23T00:16:37;99102.41;;;5.72;100.00
70053;BME280;57398;52.032;4.376;2024-02-23T00:19:25;99104.78;;;5.74;100.00
70053;BME280;57398;52.032;4.376;2024-02-23T00:22:13;99101.50;;;5.78;100.00
70053;BME280;57398;52.032;4.376;2024-02-23T00:25:04;99111.94;;;5.72;100.00
70053;BME280;57398;52.032;4.376;2024-02-23T00:27:52;99109.91;;;5.74;100.00
70053;BME280;57398;52.032;4.376;2024-02-23T00:30:40;99114.50;;;5.72;100.00
70053;BME280;57398;52.032;4.376;2024-02-23T00:33:28;99107.13;;;5.63;100.00
70053;BME280;57398;52.032;4.376;2024-02-23T00:36:16;99121.69;;;5.70;100.00
70053;BME280;57398;52.032;4.376;2024-02-23T00:39:05;99134.22;;;5.78;100.00
70053;BME280;57398;52.032;4.376;2024-02-23T00:41:55;99123.13;;;5.77;100.00
70053;BME280;57398;52.032;4.376;2024-02-23T00:44:43;99129.66;;;5.68;100.00
70053;BME280;57398;52.032;4.376;2024-02-23T00:47:31;99133.34;;;5.60;100.00
70053;BME280;57398;52.032;4.376;2024-02-23T00:50:19;99134.25;;;5.66;100.00
70053;BME280;57398;52.032;4.376;2024-02-23T00:53:08;99141.53;;;5.69;100.00
70053;BME280;57398;52.032;4.376;2024-02-23T00:55:56;99154.06;;;5.65;100.00
70053;BME280;57398;52.032;4.376;2024-02-23T00:58:45;99143.75;;;5.65;100.00
70053;BME280;57398;52.032;4.376;2024-02-23T01:01:33;99145.00;;;5.63;100.00
70053;BME280;57398;52.032;4.376;2024-02-23T01:04:21;99168.06;;;5.70;100.00
70053;BME280;57398;52.032;4.376;2024-02-23T01:07:10;99168.75;;;5.53;100.00
70053;BME280;57398;52.032;4.376;2024-02-23T01:09:58;99171.56;;;5.40;100.00
70053;BME280;57398;52.032;4.376;2024-02-23T01:12:46;99179.75;;;5.37;100.00
70053;BME280;57398;52.032;4.376;2024-02-23T01:15:36;99186.69;;;5.36;100.00
70053;BME280;57398;52.032;4.376;2024-02-23T01:18:24;99196.53;;;5.28;100.00
70053;BME280;57398;52.032;4.376;2024-02-23T01:21:13;99200.34;;;5.25;100.00
70053;BME280;57398;52.032;4.376;2024-02-23T01:24:01;99195.31;;;5.30;100.00
70053;BME280;57398;52.032;4.376;2024-02-23T01:26:51;99206.47;;;5.24;100.00
70053;BME280;57398;52.032;4.376;2024-02-23T01:29:39;99214.44;;;5.22;100.00
70053;BME280;57398;52.032;4.376;2024-02-23T01:32:28;99218.22;;;5.20;100.00
70053;BME280;57398;52.032;4.376;2024-02-23T01:35:16;99208.28;;;5.12;100.00
70053;BME280;57398;52.032;4.376;2024-02-23T01:38:05;99211.16;;;5.15;100.00
70053;BME280;57398;52.032;4.376;2024-02-23T01:40:53;99219.22;;;5.07;100.00
70053;BME280;57398;52.032;4.376;2024-02-23T01:43:41;99215.63;;;5.08;100.00
70053;BME280;57398;52.032;4.376;2024-02-23T01:46:29;99216.66;;;5.07;100.00
70053;BME280;57398;52.032;4.376;2024-02-23T01:49:20;99213.41;;;5.00;100.00
70053;BME280;57398;52.032;4.376;2024-02-23T01:52:08;99213.06;;;4.96;100.00
70053;BME280;57398;52.032;4.376;2024-02-23T01:54:57;99218.09;;;4.91;100.00
70053;BME280;57398;52.032;4.376;2024-02-23T01:57:46;99218.97;;;4.97;100.00
70053;BME280;57398;52.032;4.376;2024-02-23T02:00:36;99219.88;;;4.91;100.00
70053;BME280;57398;52.032;4.376;2024-02-23T02:03:24;99224.34;;;4.83;100.00
70053;BME280;57398;52.032;4.376;2024-02-23T02:06:14;99227.56;;;4.79;100.00
70053;BME280;57398;52.032;4.376;2024-02-23T02:09:02;99233.91;;;4.76;100.00
70053;BME280;57398;52.032;4.376;2024-02-23T02:11:51;99240.22;;;4.92;100.00
70053;BME280;57398;52.032;4.376;2024-02-23T02:14:39;99231.59;;;4.87;100.00
70053;BME280;57398;52.032;4.376;2024-02-23T02:17:27;99230.81;;;4.86;100.00
70053;BME280;57398;52.032;4.376;2024-02-23T02:20:17;99236.66;;;4.93;100.00
70053;BME280;57398;52.032;4.376;2024-02-23T02:23:07;99234.69;;;5.07;100.00
70053;BME280;57398;52.032;4.376;2024-02-23T02:25:57;99237.03;;;5.09;100.00
70053;BME280;57398;52.032;4.376;2024-02-23T02:28:46;99232.78;;;5.14;100.00
70053;BME280;57398;52.032;4.376;2024-02-23T02:31:36;99234.13;;;5.17;100.00
70053;BME280;57398;52.032;4.376;2024-02-23T02:34:24;99238.03;;;5.19;100.00
70053;BME280;57398;52.032;4.376;2024-02-23T02:37:13;99237.63;;;5.22;100.00
70053;BME280;57398;52.032;4.376;2024-02-23T02:40:02;99238.63;;;5.33;100.00
70053;BME280;57398;52.032;4.376;2024-02-23T02:42:51;99236.28;;;5.32;100.00
70053;BME280;57398;52.032;4.376;2024-02-23T02:45:39;99231.34;;;5.30;100.00
70053;BME280;57398;52.032;4.376;2024-02-23T02:48:27;99233.47;;;5.33;100.00
70053;BME280;57398;52.032;4.376;2024-02-23T02:51:16;99226.75;;;5.32;100.00
70053;BME280;57398;52.032;4.376;2024-02-23T02:54:04;99244.66;;;5.27;100.00
70053;BME280;57398;52.032;4.376;2024-02-23T02:56:53;99243.53;;;5.23;100.00
70053;BME280;57398;52.032;4.376;2024-02-23T02:59:41;99238.38;;;5.23;100.00
70053;BME280;57398;52.032;4.376;2024-02-23T03:02:31;99240.97;;;5.23;100.00
70053;BME280;57398;52.032;4.376;2024-02-23T03:05:19;99249.09;;;5.08;100.00
70053;BME280;57398;52.032;4.376;2024-02-23T03:08:07;99256.59;;;4.98;100.00
70053;BME280;57398;52.032;4.376;2024-02-23T03:10:55;99259.34;;;4.85;100.00
70053;BME280;57398;52.032;4.376;2024-02-23T03:13:45;99262.94;;;4.83;100.00
70053;BME280;57398;52.032;4.376;2024-02-23T03:16:33;99250.56;;;4.74;100.00
70053;BME280;57398;52.032;4.376;2024-02-23T03:19:24;99264.00;;;4.76;100.00
70053;BME280;57398;52.032;4.376;2024-02-23T03:22:13;99269.22;;;4.69;100.00
70053;BME280;57398;52.032;4.376;2024-02-23T03:25:01;99268.91;;;4.66;100.00
70053;BME280;57398;52.032;4.376;2024-02-23T03:27:54;99274.44;;;4.62;100.00
70053;BME280;57398;52.032;4.376;2024-02-23T03:30:44;99276.50;;;4.60;100.00
70053;BME280;57398;52.032;4.376;2024-02-23T03:33:32;99284.63;;;4.57;100.00
70053;BME280;57398;52.032;4.376;2024-02-23T03:36:20;99286.84;;;4.54;100.00
70053;BME280;57398;52.032;4.376;2024-02-23T03:39:08;99294.13;;;4.57;100.00
70053;BME280;57398;52.032;4.376;2024-02-23T03:41:57;99276.97;;;4.51;100.00
70053;BME280;57398;52.032;4.376;2024-02-23T03:44:45;99287.34;;;4.44;100.00
70053;BME280;57398;52.032;4.376;2024-02-23T03:47:34;99272.72;;;4.45;100.00
70053;BME280;57398;52.032;4.376;2024-02-23T03:50:23;99262.66;;;4.43;100.00
70053;BME280;57398;52.032;4.376;2024-02-23T03:53:11;99261.06;;;4.42;100.00
70053;BME280;57398;52.032;4.376;2024-02-23T03:55:59;99261.00;;;4.30;100.00
70053;BME280;57398;52.032;4.376;2024-02-23T03:58:47;99264.66;;;4.23;100.00
70053;BME280;57398;52.032;4.376;2024-02-23T04:01:36;99264.72;;;4.16;100.00
70053;BME280;57398;52.032;4.376;2024-02-23T04:04:25;99255.66;;;4.13;100.00
70053;BME280;57398;52.032;4.376;2024-02-23T04:07:13;99249.63;;;4.08;100.00
70053;BME280;57398;52.032;4.376;2024-02-23T04:10:02;99264.66;;;4.04;100.00
70053;BME280;57398;52.032;4.376;2024-02-23T04:12:51;99258.75;;;4.04;100.00
70053;BME280;57398;52.032;4.376;2024-02-23T04:15:39;99251.44;;;4.01;100.00
70053;BME280;57398;52.032;4.376;2024-02-23T04:18:27;99245.31;;;4.02;100.00
70053;BME280;57398;52.032;4.376;2024-02-23T04:21:16;99241.59;;;3.97;100.00
70053;BME280;57398;52.032;4.376;2024-02-23T04:24:05;99253.44;;;3.98;100.00
70053;BME280;57398;52.032;4.376;2024-02-23T04:26:53;99241.47;;;4.11;100.00
70053;BME280;57398;52.032;4.376;2024-02-23T04:29:42;99254.25;;;4.17;100.00
70053;BME280;57398;52.032;4.376;2024-02-23T04:32:30;99252.59;;;4.23;100.00
70053;BME280;57398;52.032;4.376;2024-02-23T04:35:18;99247.81;;;4.27;100.00
70053;BME280;57398;52.032;4.376;2024-02-23T04:38:07;99248.06;;;4.37;100.00
70053;BME280;57398;52.032;4.376;2024-02-23T04:40:55;99251.66;;;4.36;100.00
70053;BME280;57398;52.032;4.376;2024-02-23T04:43:44;99248.50;;;4.52;100.00
70053;BME280;57398;52.032;4.376;2024-02-23T04:46:32;99247.59;;;4.47;100.00
70053;BME280;57398;52.032;4.376;2024-02-23T04:49:21;99240.41;;;4.49;100.00
70053;BME280;57398;52.032;4.376;2024-02-23T04:52:09;99256.28;;;4.46;100.00
70053;BME280;57398;52.032;4.376;2024-02-23T04:54:59;99245.63;;;4.42;100.00
70053;BME280;57398;52.032;4.376;2024-02-23T04:57:48;99247.88;;;4.38;100.00
70053;BME280;57398;52.032;4.376;2024-02-23T05:00:35;99250.44;;;4.38;100.00
70053;BME280;57398;52.032;4.376;2024-02-23T05:03:24;99255.91;;;4.42;100.00
70053;BME280;57398;52.032;4.376;2024-02-23T05:06:12;99253.44;;;4.35;100.00
70053;BME280;57398;52.032;4.376;2024-02-23T05:09:00;99240.66;;;4.47;100.00
70053;BME280;57398;52.032;4.376;2024-02-23T05:11:51;99248.84;;;4.37;100.00
70053;BME280;57398;52.032;4.376;2024-02-23T05:14:39;99265.41;;;4.41;100.00
70053;BME280;57398;52.032;4.376;2024-02-23T05:17:27;99248.84;;;4.37;100.00
70053;BME280;57398;52.032;4.376;2024-02-23T05:20:15;99232.06;;;4.35;100.00
70053;BME280;57398;52.032;4.376;2024-02-23T05:23:04;99225.22;;;4.47;100.00
70053;BME280;57398;52.032;4.376;2024-02-23T05:25:52;99226.00;;;4.48;100.00
70053;BME280;57398;52.032;4.376;2024-02-23T05:28:41;99218.81;;;4.38;100.00
70053;BME280;57398;52.032;4.376;2024-02-23T05:31:44;99210.38;;;4.49;100.00
70053;BME280;57398;52.032;4.376;2024-02-23T05:34:32;99219.44;;;4.52;100.00
70053;BME280;57398;52.032;4.376;2024-02-23T05:37:21;99219.34;;;4.58;100.00
70053;BME280;57398;52.032;4.376;2024-02-23T05:40:11;99211.72;;;4.52;100.00
70053;BME280;57398;52.032;4.376;2024-02-23T05:42:59;99215.63;;;4.54;100.00
70053;BME280;57398;52.032;4.376;2024-02-23T05:45:48;99211.63;;;4.58;100.00
70053;BME280;57398;52.032;4.376;2024-02-23T05:48:37;99213.19;;;4.59;100.00
70053;BME280;57398;52.032;4.376;2024-02-23T05:51:25;99213.75;;;4.61;100.00
70053;BME280;57398;52.032;4.376;2024-02-23T05:54:13;99221.81;;;4.65;100.00
70053;BME280;57398;52.032;4.376;2024-02-23T05:57:01;99209.06;;;4.58;100.00
70053;BME280;57398;52.032;4.376;2024-02-23T05:59:49;99208.31;;;4.70;100.00
70053;BME280;57398;52.032;4.376;2024-02-23T06:02:39;99205.63;;;4.76;100.00
70053;BME280;57398;52.032;4.376;2024-02-23T06:05:27;99216.03;;;4.70;100.00
70053;BME280;57398;52.032;4.376;2024-02-23T06:08:15;99212.13;;;4.79;100.00
70053;BME280;57398;52.032;4.376;2024-02-23T06:11:04;99212.13;;;4.79;100.00
70053;BME280;57398;52.032;4.376;2024-02-23T06:13:53;99216.47;;;4.78;100.00
70053;BME280;57398;52.032;4.376;2024-02-23T06:16:41;99219.28;;;4.77;100.00
70053;BME280;57398;52.032;4.376;2024-02-23T06:19:30;99204.41;;;4.79;100.00
70053;BME280;57398;52.032;4.376;2024-02-23T06:22:18;99212.91;;;4.79;100.00
70053;BME280;57398;52.032;4.376;2024-02-23T06:25:08;99209.56;;;4.79;100.00
70053;BME280;57398;52.032;4.376;2024-02-23T06:27:57;99216.25;;;4.80;100.00
70053;BME280;57398;52.032;4.376;2024-02-23T06:30:45;99206.75;;;4.80;100.00
70053;BME280;57398;52.032;4.376;2024-02-23T06:33:33;99195.47;;;4.81;100.00
70053;BME280;57398;52.032;4.376;2024-02-23T06:36:22;99213.25;;;4.83;100.00
70053;BME280;57398;52.032;4.376;2024-02-23T06:39:10;99208.09;;;4.83;100.00
70053;BME280;57398;52.032;4.376;2024-02-23T06:41:58;99222.34;;;4.86;100.00
70053;BME280;57398;52.032;4.376;2024-02-23T06:44:49;99218.19;;;4.85;100.00
70053;BME280;57398;52.032;4.376;2024-02-23T06:47:37;99240.34;;;4.86;100.00
70053;BME280;57398;52.032;4.376;2024-02-23T06:50:26;99229.03;;;4.87;100.00
70053;BME280;57398;52.032;4.376;2024-02-23T06:53:16;99225.69;;;4.86;100.00
70053;BME280;57398;52.032;4.376;2024-02-23T06:56:04;99231.03;;;4.85;100.00
70053;BME280;57398;52.032;4.376;2024-02-23T06:58:53;99230.81;;;4.86;100.00
70053;BME280;57398;52.032;4.376;2024-02-23T07:01:48;99234.19;;;4.87;100.00
70053;BME280;57398;52.032;4.376;2024-02-23T07:04:36;99226.91;;;4.83;100.00
70053;BME280;57398;52.032;4.376;2024-02-23T07:07:24;99226.66;;;4.85;100.00
70053;BME280;57398;52.032;4.376;2024-02-23T07:10:16;99236.16;;;4.73;100.00
70053;BME280;57398;52.032;4.376;2024-02-23T07:13:07;99228.06;;;4.69;100.00
70053;BME280;57398;52.032;4.376;2024-02-23T07:15:55;99222.03;;;4.64;100.00
70053;BME280;57398;52.032;4.376;2024-02-23T07:18:45;99212.59;;;4.57;100.00
70053;BME280;57398;52.032;4.376;2024-02-23T07:21:33;99211.72;;;4.52;100.00
70053;BME280;57398;52.032;4.376;2024-02-23T07:24:21;99199.84;;;4.51;100.00
70053;BME280;57398;52.032;4.376;2024-02-23T07:27:11;99218.72;;;4.45;100.00
70053;BME280;57398;52.032;4.376;2024-02-23T07:29:59;99228.66;;;4.41;100.00
70053;BME280;57398;52.032;4.376;2024-02-23T07:32:48;99208.81;;;4.30;100.00
70053;BME280;57398;52.032;4.376;2024-02-23T07:35:39;99195.06;;;4.24;100.00
70053;BME280;57398;52.032;4.376;2024-02-23T07:38:27;99198.75;;;4.10;100.00
70053;BME280;57398;52.032;4.376;2024-02-23T07:41:15;99201.22;;;4.05;100.00
70053;BME280;57398;52.032;4.376;2024-02-23T07:44:06;99195.81;;;3.94;100.00
70053;BME280;57398;52.032;4.376;2024-02-23T07:46:54;99172.50;;;3.89;100.00
70053;BME280;57398;52.032;4.376;2024-02-23T07:49:42;99165.38;;;3.91;100.00
70053;BME280;57398;52.032;4.376;2024-02-23T07:52:30;99154.19;;;3.86;100.00
70053;BME280;57398;52.032;4.376;2024-02-23T07:55:18;99148.50;;;3.84;100.00
70053;BME280;57398;52.032;4.376;2024-02-23T07:58:06;99139.63;;;3.80;100.00
70053;BME280;57398;52.032;4.376;2024-02-23T08:00:56;99132.00;;;3.91;100.00
70053;BME280;57398;52.032;4.376;2024-02-23T08:03:44;99123.44;;;3.97;100.00
70053;BME280;57398;52.032;4.376;2024-02-23T08:06:32;99113.72;;;3.99;100.00
70053;BME280;57398;52.032;4.376;2024-02-23T08:09:20;99101.22;;;4.03;100.00
70053;BME280;57398;52.032;4.376;2024-02-23T08:12:11;99096.44;;;4.07;100.00
70053;BME280;57398;52.032;4.376;2024-02-23T08:15:01;99097.34;;;4.12;100.00
70053;BME280;57398;52.032;4.376;2024-02-23T08:17:51;99083.94;;;4.10;100.00
70053;BME280;57398;52.032;4.376;2024-02-23T08:20:39;99075.34;;;4.16;100.00
70053;BME280;57398;52.032;4.376;2024-02-23T08:23:27;99078.16;;;4.15;100.00
70053;BME280;57398;52.032;4.376;2024-02-23T08:26:15;99085.84;;;4.15;100.00
70053;BME280;57398;52.032;4.376;2024-02-23T08:29:03;99085.97;;;4.20;100.00
70053;BME280;57398;52.032;4.376;2024-02-23T08:31:51;99087.97;;;4.18;100.00
70053;BME280;57398;52.032;4.376;2024-02-23T08:34:41;99095.69;;;4.18;100.00
70053;BME280;57398;52.032;4.376;2024-02-23T08:37:29;99090.66;;;4.23;100.00
70053;BME280;57398;52.032;4.376;2024-02-23T08:40:17;99066.66;;;4.17;100.00
70053;BME280;57398;52.032;4.376;2024-02-23T08:43:05;99057.59;;;4.15;100.00
70053;BME280;57398;52.032;4.376;2024-02-23T08:45:53;99064.75;;;4.25;100.00
70053;BME280;57398;52.032;4.376;2024-02-23T08:48:41;99063.53;;;4.27;100.00
70053;BME280;57398;52.032;4.376;2024-02-23T08:51:31;99050.03;;;4.32;100.00
70053;BME280;57398;52.032;4.376;2024-02-23T08:54:19;99055.84;;;4.39;100.00
70053;BME280;57398;52.032;4.376;2024-02-23T08:57:07;99063.81;;;4.49;100.00
70053;BME280;57398;52.032;4.376;2024-02-23T08:59:55;99066.81;;;4.58;100.00
70053;BME280;57398;52.032;4.376;2024-02-23T09:02:45;99092.41;;;4.53;100.00
70053;BME280;57398;52.032;4.376;2024-02-23T09:05:33;99111.03;;;4.90;100.00
70053;BME280;57398;52.032;4.376;2024-02-23T09:08:22;99131.72;;;5.07;100.00
70053;BME280;57398;52.032;4.376;2024-02-23T09:11:10;99148.72;;;5.20;100.00
70053;BME280;57398;52.032;4.376;2024-02-23T09:14:00;99154.44;;;5.22;100.00
70053;BME280;57398;52.032;4.376;2024-02-23T09:16:49;99161.47;;;5.27;100.00
70053;BME280;57398;52.032;4.376;2024-02-23T09:19:37;99150.66;;;5.36;100.00
70053;BME280;57398;52.032;4.376;2024-02-23T09:22:25;99158.78;;;5.45;100.00
70053;BME280;57398;52.032;4.376;2024-02-23T09:25:15;99180.50;;;5.49;100.00
70053;BME280;57398;52.032;4.376;2024-02-23T09:28:04;99189.72;;;5.57;100.00
70053;BME280;57398;52.032;4.376;2024-02-23T09:30:52;99181.72;;;5.58;100.00
70053;BME280;57398;52.032;4.376;2024-02-23T09:33:44;99177.16;;;5.60;100.00
70053;BME280;57398;52.032;4.376;2024-02-23T09:36:33;99189.25;;;5.60;100.00
70053;BME280;57398;52.032;4.376;2024-02-23T09:39:21;99197.44;;;5.57;100.00
70053;BME280;57398;52.032;4.376;2024-02-23T09:42:10;99205.91;;;5.69;100.00
70053;BME280;57398;52.032;4.376;2024-02-23T09:45:00;99197.50;;;5.85;100.00
70053;BME280;57398;52.032;4.376;2024-02-23T09:47:48;99207.34;;;5.88;100.00
70053;BME280;57398;52.032;4.376;2024-02-23T09:50:37;99219.78;;;6.03;100.00
70053;BME280;57398;52.032;4.376;2024-02-23T09:53:25;99202.41;;;6.11;100.00
70053;BME280;57398;52.032;4.376;2024-02-23T09:56:14;99221.88;;;6.18;100.00
70053;BME280;57398;52.032;4.376;2024-02-23T09:59:05;99248.03;;;6.39;100.00
70053;BME280;57398;52.032;4.376;2024-02-23T10:01:53;99257.81;;;6.37;100.00
70053;BME280;57398;52.032;4.376;2024-02-23T10:04:43;99236.38;;;6.36;100.00
70053;BME280;57398;52.032;4.376;2024-02-23T10:07:31;99238.22;;;6.53;100.00
70053;BME280;57398;52.032;4.376;2024-02-23T10:10:24;99244.91;;;6.65;100.00
70053;BME280;57398;52.032;4.376;2024-02-23T10:13:13;99259.91;;;6.97;100.00
70053;BME280;57398;52.032;4.376;2024-02-23T10:16:03;99256.59;;;6.85;100.00
70053;BME280;57398;52.032;4.376;2024-02-23T10:19:03;99266.63;;;6.98;100.00
70053;BME280;57398;52.032;4.376;2024-02-23T10:21:52;99276.03;;;6.87;100.00
70053;BME280;57398;52.032;4.376;2024-02-23T10:24:42;99276.66;;;6.66;100.00
70053;BME280;57398;52.032;4.376;2024-02-23T10:27:30;99296.34;;;6.84;100.00
70053;BME280;57398;52.032;4.376;2024-02-23T10:30:18;99279.75;;;6.80;100.00
70053;BME280;57398;52.032;4.376;2024-02-23T10:33:08;99280.94;;;6.89;100.00
70053;BME280;57398;52.032;4.376;2024-02-23T10:35:58;99294.34;;;7.03;100.00
70053;BME280;57398;52.032;4.376;2024-02-23T10:38:48;99305.00;;;7.06;100.00
70053;BME280;57398;52.032;4.376;2024-02-23T10:41:43;99300.78;;;7.34;100.00
70053;BME280;57398;52.032;4.376;2024-02-23T10:44:34;99307.28;;;7.37;100.00
70053;BME280;57398;52.032;4.376;2024-02-23T10:47:24;99322.09;;;7.41;100.00
70053;BME280;57398;52.032;4.376;2024-02-23T10:50:14;99318.88;;;7.51;100.00
70053;BME280;57398;52.032;4.376;2024-02-23T10:53:04;99323.56;;;7.20;100.00
70053;BME280;57398;52.032;4.376;2024-02-23T10:55:56;99339.84;;;7.21;100.00
70053;BME280;57398;52.032;4.376;2024-02-23T10:58:45;99347.66;;;7.26;100.00
70053;BME280;57398;52.032;4.376;2024-02-23T11:01:33;99348.59;;;7.20;100.00
70053;BME280;57398;52.032;4.376;2024-02-23T11:04:22;99351.00;;;7.09;100.00
70053;BME280;57398;52.032;4.376;2024-02-23T11:07:14;99355.75;;;7.01;100.00
70053;BME280;57398;52.032;4.376;2024-02-23T11:10:04;99362.41;;;6.97;100.00
70053;BME280;57398;52.032;4.376;2024-02-23T11:12:57;99369.00;;;7.04;100.00
70053;BME280;57398;52.032;4.376;2024-02-23T11:15:46;99361.81;;;6.66;100.00
70053;BME280;57398;52.032;4.376;2024-02-23T11:18:35;99376.00;;;6.80;100.00
70053;BME280;57398;52.032;4.376;2024-02-23T11:21:33;99372.56;;;7.32;100.00
70053;BME280;57398;52.032;4.376;2024-02-23T11:24:25;99369.91;;;7.27;100.00
70053;BME280;57398;52.032;4.376;2024-02-23T11:27:15;99356.84;;;7.33;100.00
70053;BME280;57398;52.032;4.376;2024-02-23T11:30:06;99364.03;;;7.31;100.00
70053;BME280;57398;52.032;4.376;2024-02-23T11:32:59;99374.94;;;7.33;100.00
70053;BME280;57398;52.032;4.376;2024-02-23T11:35:47;99373.81;;;7.29;100.00
70053;BME280;57398;52.032;4.376;2024-02-23T11:38:38;99371.31;;;7.34;100.00
70053;BME280;57398;52.032;4.376;2024-02-23T11:41:29;99370.53;;;7.34;100.00
70053;BME280;57398;52.032;4.376;2024-02-23T11:44:17;99363.81;;;7.67;100.00
70053;BME280;57398;52.032;4.376;2024-02-23T11:47:06;99366.66;;;7.82;100.00
70053;BME280;57398;52.032;4.376;2024-02-23T11:49:55;99368.38;;;7.76;100.00
70053;BME280;57398;52.032;4.376;2024-02-23T11:52:43;99370.34;;;7.86;100.00
70053;BME280;57398;52.032;4.376;2024-02-23T11:55:31;99371.97;;;7.92;100.00
70053;BME280;57398;52.032;4.376;2024-02-23T11:58:20;99362.31;;;8.05;100.00
70053;BME280;57398;52.032;4.376;2024-02-23T12:01:09;99384.41;;;8.12;100.00
70053;BME280;57398;52.032;4.376;2024-02-23T12:03:57;99353.69;;;7.99;100.00
70053;BME280;57398;52.032;4.376;2024-02-23T12:06:45;99363.66;;;8.07;100.00
70053;BME280;57398;52.032;4.376;2024-02-23T12:09:33;99371.63;;;8.23;100.00
70053;BME280;57398;52.032;4.376;2024-02-23T12:12:21;99372.56;;;8.16;100.00
70053;BME280;57398;52.032;4.376;2024-02-23T12:15:11;99385.63;;;8.27;100.00
70053;BME280;57398;52.032;4.376;2024-02-23T12:17:59;99372.47;;;8.28;100.00
70053;BME280;57398;52.032;4.376;2024-02-23T12:20:48;99387.22;;;8.28;100.00
70053;BME280;57398;52.032;4.376;2024-02-23T12:23:42;99386.19;;;8.29;100.00
70053;BME280;57398;52.032;4.376;2024-02-23T12:26:31;99372.28;;;8.35;100.00
70053;BME280;57398;52.032;4.376;2024-02-23T12:29:20;99378.59;;;8.61;100.00
70053;BME280;57398;52.032;4.376;2024-02-23T12:32:09;99375.19;;;8.38;100.00
70053;BME280;57398;52.032;4.376;2024-02-23T12:34:57;99387.88;;;8.57;100.00
70053;BME280;57398;52.032;4.376;2024-02-23T12:37:45;99397.00;;;8.43;100.00
70053;BME280;57398;52.032;4.376;2024-02-23T12:40:33;99387.47;;;8.09;100.00
70053;BME280;57398;52.032;4.376;2024-02-23T12:43:21;99399.41;;;7.93;100.00
70053;BME280;57398;52.032;4.376;2024-02-23T12:46:11;99404.31;;;8.12;100.00
70053;BME280;57398;52.032;4.376;2024-02-23T12:49:02;99409.59;;;8.00;100.00
70053;BME280;57398;52.032;4.376;2024-02-23T12:51:50;99409.03;;;7.98;100.00
70053;BME280;57398;52.032;4.376;2024-02-23T12:54:38;99402.56;;;8.17;100.00
70053;BME280;57398;52.032;4.376;2024-02-23T12:57:28;99401.97;;;8.27;100.00
70053;BME280;57398;52.032;4.376;2024-02-23T13:00:17;99395.63;;;8.18;100.00
70053;BME280;57398;52.032;4.376;2024-02-23T13:03:05;99408.84;;;8.22;100.00
70053;BME280;57398;52.032;4.376;2024-02-23T13:05:55;99406.13;;;8.11;100.00
70053;BME280;57398;52.032;4.376;2024-02-23T13:08:44;99397.34;;;8.12;100.00
70053;BME280;57398;52.032;4.376;2024-02-23T13:11:33;99407.69;;;8.12;100.00
70053;BME280;57398;52.032;4.376;2024-02-23T13:14:21;99395.16;;;7.87;100.00
70053;BME280;57398;52.032;4.376;2024-02-23T13:17:09;99407.56;;;8.02;100.00
70053;BME280;57398;52.032;4.376;2024-02-23T13:19:58;99415.69;;;7.94;100.00
70053;BME280;57398;52.032;4.376;2024-02-23T13:22:58;99411.63;;;7.98;100.00
70053;BME280;57398;52.032;4.376;2024-02-23T13:25:46;99424.56;;;7.98;100.00
70053;BME280;57398;52.032;4.376;2024-02-23T13:28:35;99402.97;;;7.92;100.00
70053;BME280;57398;52.032;4.376;2024-02-23T13:31:23;99398.78;;;7.86;100.00
70053;BME280;57398;52.032;4.376;2024-02-23T13:34:11;99403.00;;;7.75;100.00
70053;BME280;57398;52.032;4.376;2024-02-23T13:37:01;99399.63;;;7.75;100.00
70053;BME280;57398;52.032;4.376;2024-02-23T13:39:50;99394.75;;;7.79;100.00
70053;BME280;57398;52.032;4.376;2024-02-23T13:42:38;99399.56;;;7.87;100.00
70053;BME280;57398;52.032;4.376;2024-02-23T13:45:27;99403.31;;;7.96;100.00
70053;BME280;57398;52.032;4.376;2024-02-23T13:48:15;99410.75;;;7.75;100.00
70053;BME280;57398;52.032;4.376;2024-02-23T13:51:03;99406.63;;;7.74;100.00
70053;BME280;57398;52.032;4.376;2024-02-23T13:53:52;99404.25;;;7.73;100.00
70053;BME280;57398;52.032;4.376;2024-02-23T13:56:41;99406.97;;;7.66;100.00
70053;BME280;57398;52.032;4.376;2024-02-23T13:59:30;99417.94;;;7.73;100.00
70053;BME280;57398;52.032;4.376;2024-02-23T14:02:25;99416.00;;;7.64;100.00
70053;BME280;57398;52.032;4.376;2024-02-23T14:05:13;99430.47;;;7.65;100.00
70053;BME280;57398;52.032;4.376;2024-02-23T14:08:02;99424.22;;;7.61;100.00
70053;BME280;57398;52.032;4.376;2024-02-23T14:10:54;99434.44;;;7.55;100.00
70053;BME280;57398;52.032;4.376;2024-02-23T14:13:44;99428.69;;;7.65;100.00
70053;BME280;57398;52.032;4.376;2024-02-23T14:16:37;99420.53;;;7.57;100.00
70053;BME280;57398;52.032;4.376;2024-02-23T14:19:25;99427.50;;;7.56;100.00
70053;BME280;57398;52.032;4.376;2024-02-23T14:22:13;99418.00;;;7.45;100.00
70053;BME280;57398;52.032;4.376;2024-02-23T14:25:01;99427.53;;;7.44;100.00
70053;BME280;57398;52.032;4.376;2024-02-23T14:27:49;99426.75;;;7.44;100.00
70053;BME280;57398;52.032;4.376;2024-02-23T14:30:39;99427.94;;;7.53;100.00
70053;BME280;57398;52.032;4.376;2024-02-23T14:33:29;99436.59;;;7.59;100.00
70053;BME280;57398;52.032;4.376;2024-02-23T14:36:18;99447.28;;;7.50;100.00
70053;BME280;57398;52.032;4.376;2024-02-23T14:39:06;99446.56;;;7.38;100.00
70053;BME280;57398;52.032;4.376;2024-02-23T14:41:54;99442.19;;;7.39;100.00
70053;BME280;57398;52.032;4.376;2024-02-23T14:44:43;99453.84;;;7.41;100.00
70053;BME280;57398;52.032;4.376;2024-02-23T14:47:32;99450.53;;;7.29;100.00
70053;BME280;57398;52.032;4.376;2024-02-23T14:50:31;99467.75;;;7.52;100.00
70053;BME280;57398;52.032;4.376;2024-02-23T14:53:20;99453.63;;;7.43;100.00
70053;BME280;57398;52.032;4.376;2024-02-23T14:56:08;99466.75;;;7.41;100.00